createdAt,value
2023-02-11T00:01:09.814Z,23.77
2023-02-11T00:03:37.203Z,23.88
2023-02-11T00:06:05.706Z,24.33
2023-02-11T00:08:33.017Z,23.63
2023-02-11T00:11:00.149Z,23.80
2023-02-11T00:13:30.476Z,23.90
2023-02-11T00:15:57.706Z,23.38
2023-02-11T00:18:25.104Z,24.23
2023-02-11T00:20:52.353Z,23.48
2023-02-11T00:23:20.211Z,23.73
2023-02-11T00:25:47.378Z,23.20
2023-02-11T00:28:14.710Z,22.08
2023-02-11T00:30:42.023Z,21.98
2023-02-11T00:33:09.258Z,22.80
2023-02-11T00:35:38.394Z,22.55
2023-02-11T00:38:05.822Z,22.17
2023-02-11T00:40:33.068Z,21.48
2023-02-11T00:43:00.296Z,21.88
2023-02-11T00:45:28.816Z,22.52
2023-02-11T00:47:56.235Z,23.17
2023-02-11T00:50:23.570Z,21.92
2023-02-11T00:52:50.887Z,23.75
2023-02-11T00:55:18.261Z,23.40
2023-02-11T00:57:45.417Z,22.98
2023-02-11T01:00:14.546Z,21.80
2023-02-11T01:02:41.865Z,23.27
2023-02-11T01:05:09.563Z,22.10
2023-02-11T01:07:37.056Z,23.25
2023-02-11T01:10:04.701Z,22.05
2023-02-11T01:12:34.531Z,22.05
2023-02-11T01:15:03.318Z,23.42
2023-02-11T01:17:30.743Z,21.75
2023-02-11T01:19:58.699Z,21.63
2023-02-11T01:22:25.941Z,23.10
2023-02-11T01:24:53.234Z,20.75
2023-02-11T01:27:20.400Z,21.48
2023-02-11T01:29:47.543Z,21.23
2023-02-11T01:32:14.744Z,21.17
2023-02-11T01:34:41.985Z,21.70
2023-02-11T01:37:09.195Z,20.67
2023-02-11T01:39:36.553Z,23.02
2023-02-11T01:42:04.203Z,21.58
2023-02-11T01:44:37.456Z,22.17
2023-02-11T01:47:06.444Z,20.67
2023-02-11T01:49:36.518Z,21.25
2023-02-11T01:52:12.289Z,21.30
2023-02-11T01:55:01.574Z,22.25
2023-02-11T01:57:31.145Z,20.85
2023-02-11T02:00:02.049Z,22.42
2023-02-11T02:02:33.894Z,23.02
2023-02-11T02:05:10.611Z,21.45
2023-02-11T02:07:45.682Z,22.23
2023-02-11T02:10:17.833Z,21.80
2023-02-11T02:12:45.093Z,20.77
2023-02-11T02:15:22.937Z,21.08
2023-02-11T02:17:55.086Z,22.60
2023-02-11T02:20:22.191Z,21.17
2023-02-11T02:22:49.499Z,21.25
2023-02-11T02:25:23.522Z,22.67
2023-02-11T02:28:09.573Z,20.70
2023-02-11T02:30:52.778Z,21.88
2023-02-11T02:33:38.786Z,21.80
2023-02-11T02:36:18.798Z,22.13
2023-02-11T02:38:46.020Z,20.88
2023-02-11T02:41:17.671Z,20.20
2023-02-11T02:43:46.511Z,20.42
2023-02-11T02:46:19.892Z,21.17
2023-02-11T02:48:49.427Z,20.50
2023-02-11T02:51:40.731Z,21.33
2023-02-11T02:54:08.001Z,20.75
2023-02-11T02:56:49.572Z,22.50
2023-02-11T02:59:19.910Z,21.42
2023-02-11T03:01:56.285Z,20.75
2023-02-11T03:04:23.532Z,21.50
2023-02-11T03:06:56.684Z,22.80
2023-02-11T03:09:28.934Z,22.00
2023-02-11T03:11:56.720Z,23.42
2023-02-11T03:14:27.134Z,22.80
2023-02-11T03:16:55.975Z,23.27
2023-02-11T03:19:49.770Z,24.33
2023-02-11T03:22:19.714Z,24.13
2023-02-11T03:24:47.346Z,23.23
2023-02-11T03:27:29.760Z,23.17
2023-02-11T03:30:01.973Z,23.40
2023-02-11T03:32:40.126Z,23.10
2023-02-11T03:35:37.030Z,23.42
2023-02-11T03:38:13.996Z,22.80
2023-02-11T03:40:42.009Z,22.95
2023-02-11T03:43:10.958Z,22.65
2023-02-11T03:45:39.242Z,22.95
2023-02-11T03:48:09.999Z,22.73
2023-02-11T03:50:38.081Z,22.52
2023-02-11T03:53:06.279Z,22.10
2023-02-11T03:55:37.607Z,23.60
2023-02-11T03:58:04.878Z,22.85
2023-02-11T04:00:32.579Z,22.08
2023-02-11T04:02:59.740Z,23.83
2023-02-11T04:05:26.947Z,22.30
2023-02-11T04:07:54.364Z,23.58
2023-02-11T04:10:21.690Z,23.05
2023-02-11T04:12:48.863Z,24.40
2023-02-11T04:15:16.144Z,24.83
2023-02-11T04:17:43.606Z,22.90
2023-02-11T04:20:11.248Z,23.27
2023-02-11T04:22:38.527Z,23.98
2023-02-11T04:25:06.801Z,23.00
2023-02-11T04:27:34.195Z,23.13
2023-02-11T04:30:01.432Z,23.95
2023-02-11T04:32:28.599Z,23.92
2023-02-11T04:34:56.072Z,22.70
2023-02-11T04:37:23.203Z,24.08
2023-02-11T04:39:50.373Z,23.30
2023-02-11T04:42:17.578Z,23.17
2023-02-11T04:44:45.395Z,24.17
2023-02-11T04:47:15.677Z,23.52
2023-02-11T04:49:42.935Z,23.70
2023-02-11T04:52:10.239Z,23.33
2023-02-11T04:54:37.416Z,22.77
2023-02-11T04:57:04.833Z,26.08
2023-02-11T04:59:32.059Z,24.10
2023-02-11T05:01:59.238Z,27.35
2023-02-11T05:04:26.687Z,25.95
2023-02-11T05:06:53.912Z,25.95
2023-02-11T05:09:21.093Z,26.08
2023-02-11T05:11:48.295Z,32.08
2023-02-11T05:14:15.457Z,25.80
2023-02-11T05:16:42.932Z,26.15
2023-02-11T05:19:10.215Z,26.52
2023-02-11T05:21:37.364Z,25.45
2023-02-11T05:24:04.757Z,25.92
2023-02-11T05:26:31.999Z,32.58
2023-02-11T05:28:59.230Z,31.75
2023-02-11T05:31:26.454Z,25.77
2023-02-11T05:33:53.674Z,27.15
2023-02-11T05:36:20.893Z,26.00
2023-02-11T05:38:48.234Z,26.17
2023-02-11T05:41:15.524Z,26.17
2023-02-11T05:43:42.748Z,26.40
2023-02-11T05:46:10.172Z,26.80
2023-02-11T05:48:37.338Z,26.35
2023-02-11T05:51:04.608Z,26.20
2023-02-11T05:53:31.984Z,25.80
2023-02-11T05:55:59.234Z,25.70
2023-02-11T05:58:26.435Z,25.02
2023-02-11T06:00:53.659Z,24.98
2023-02-11T06:03:21.222Z,26.13
2023-02-11T06:05:48.701Z,25.92
2023-02-11T06:08:15.937Z,24.75
2023-02-11T06:10:45.439Z,25.52
2023-02-11T06:13:13.150Z,24.88
2023-02-11T06:15:40.731Z,24.58
2023-02-11T06:18:08.718Z,24.17
2023-02-11T06:20:36.015Z,22.88
2023-02-11T06:23:03.164Z,25.25
2023-02-11T06:25:30.318Z,24.80
2023-02-11T06:27:58.049Z,25.40
2023-02-11T06:30:25.710Z,25.83
2023-02-11T06:32:53.173Z,24.38
2023-02-11T06:35:20.636Z,24.70
2023-02-11T06:37:49.940Z,24.58
2023-02-11T06:40:17.228Z,24.50
2023-02-11T06:42:44.407Z,24.08
2023-02-11T06:45:13.209Z,23.23
2023-02-11T06:47:40.927Z,23.63
2023-02-11T06:50:09.233Z,24.83
2023-02-11T06:52:36.667Z,24.33
2023-02-11T06:55:03.909Z,25.40
2023-02-11T06:57:32.156Z,24.23
2023-02-11T06:59:59.430Z,25.25
2023-02-11T07:02:26.770Z,24.48
2023-02-11T07:04:53.987Z,26.50
2023-02-11T07:07:21.675Z,24.27
2023-02-11T07:09:49.118Z,24.83
2023-02-11T07:12:17.050Z,25.38
2023-02-11T07:14:44.280Z,24.35
2023-02-11T07:17:11.691Z,25.52
2023-02-11T07:19:38.898Z,25.63
2023-02-11T07:22:06.036Z,26.20
2023-02-11T07:24:33.520Z,25.63
2023-02-11T07:27:00.714Z,26.02
2023-02-11T07:29:28.049Z,26.15
2023-02-11T07:31:55.329Z,25.75
2023-02-11T07:34:22.623Z,26.30
2023-02-11T07:36:50.087Z,26.92
2023-02-11T07:39:17.333Z,27.30
2023-02-11T07:41:47.860Z,27.42
2023-02-11T07:44:15.239Z,28.75
2023-02-11T07:46:45.756Z,28.10
2023-02-11T07:49:13.310Z,26.35
2023-02-11T07:51:40.526Z,24.52
2023-02-11T07:54:08.132Z,23.25
2023-02-11T07:56:35.522Z,24.35
2023-02-11T07:59:03.752Z,24.25
2023-02-11T08:01:31.368Z,24.13
2023-02-11T08:03:59.290Z,24.10
2023-02-11T08:06:28.086Z,24.23
2023-02-11T08:08:55.447Z,24.55
2023-02-11T08:11:24.452Z,23.23
2023-02-11T08:13:51.963Z,25.55
2023-02-11T08:16:19.202Z,26.17
2023-02-11T08:18:46.512Z,26.50
2023-02-11T08:21:13.755Z,26.10
2023-02-11T08:23:41.450Z,25.95
2023-02-11T08:26:15.852Z,28.67
2023-02-11T08:28:44.296Z,26.70
2023-02-11T08:31:13.511Z,31.27
2023-02-11T08:33:41.264Z,29.42
2023-02-11T08:36:09.682Z,29.80
2023-02-11T08:38:37.119Z,26.83
2023-02-11T08:41:04.672Z,29.48
2023-02-11T08:43:33.332Z,25.98
2023-02-11T08:46:02.374Z,25.95
2023-02-11T08:48:31.033Z,26.33
2023-02-11T08:50:58.242Z,25.42
2023-02-11T08:53:27.548Z,26.65
2023-02-11T08:55:55.782Z,25.10
2023-02-11T08:58:23.337Z,25.45
2023-02-11T09:00:51.340Z,25.80
2023-02-11T09:03:18.758Z,27.00
2023-02-11T09:05:47.638Z,26.98
2023-02-11T09:08:15.311Z,26.85
2023-02-11T09:10:42.656Z,25.58
2023-02-11T09:13:10.351Z,26.60
2023-02-11T09:15:37.893Z,27.25
2023-02-11T09:18:06.052Z,25.45
2023-02-11T09:20:33.648Z,25.73
2023-02-11T09:23:01.013Z,25.55
2023-02-11T09:25:28.221Z,27.30
2023-02-11T09:27:55.438Z,25.80
2023-02-11T09:30:22.858Z,27.77
2023-02-11T09:32:50.854Z,25.65
2023-02-11T09:35:18.196Z,24.48
2023-02-11T09:37:45.496Z,24.63
2023-02-11T09:40:13.622Z,25.33
2023-02-11T09:43:03.030Z,23.95
2023-02-11T09:45:31.860Z,26.05
2023-02-11T09:47:58.986Z,26.63
2023-02-11T09:50:31.790Z,25.20
2023-02-11T09:53:01.463Z,25.90
2023-02-11T09:55:30.575Z,25.85
2023-02-11T09:57:58.492Z,24.90
2023-02-11T10:00:32.647Z,23.58
2023-02-11T10:03:18.708Z,24.70
2023-02-11T10:06:11.690Z,24.75
2023-02-11T10:08:52.932Z,24.05
2023-02-11T10:11:37.436Z,26.80
2023-02-11T10:14:25.061Z,25.05
2023-02-11T10:17:00.111Z,26.83
2023-02-11T10:19:27.291Z,25.70
2023-02-11T10:22:14.746Z,24.90
2023-02-11T10:24:44.684Z,25.48
2023-02-11T10:27:22.182Z,25.38
2023-02-11T10:29:54.406Z,25.75
2023-02-11T10:32:30.460Z,26.67
2023-02-11T10:35:01.614Z,24.90
2023-02-11T10:37:28.916Z,23.02
2023-02-11T10:39:56.409Z,23.85
2023-02-11T10:42:23.872Z,23.55
2023-02-11T10:45:01.427Z,24.67
2023-02-11T10:47:32.793Z,23.35
2023-02-11T10:50:03.628Z,22.45
2023-02-11T10:52:31.545Z,22.83
2023-02-11T10:55:18.464Z,21.95
2023-02-11T10:57:57.139Z,21.85
2023-02-11T11:00:28.843Z,22.20
2023-02-11T11:03:03.362Z,20.95
2023-02-11T11:05:38.819Z,22.42
2023-02-11T11:08:09.825Z,20.73
2023-02-11T11:10:45.050Z,20.60
2023-02-11T11:13:29.699Z,19.27
2023-02-11T11:16:15.328Z,18.38
2023-02-11T11:18:43.915Z,18.10
2023-02-11T11:21:25.173Z,17.77
2023-02-11T11:23:55.328Z,16.33
2023-02-11T11:26:23.104Z,16.25
2023-02-11T11:28:50.445Z,16.73
2023-02-11T11:31:40.667Z,14.18
2023-02-11T11:34:19.896Z,14.35
2023-02-11T11:36:47.439Z,14.73
2023-02-11T11:39:19.643Z,16.17
2023-02-11T11:42:04.127Z,15.77
2023-02-11T11:44:32.969Z,15.70
2023-02-11T11:47:17.740Z,15.30
2023-02-11T11:49:48.399Z,14.82
2023-02-11T11:52:31.701Z,15.30
2023-02-11T11:55:06.224Z,15.43
2023-02-11T11:57:36.780Z,16.45
2023-02-11T12:00:05.332Z,16.08
2023-02-11T12:03:08.216Z,17.98
2023-02-11T12:05:39.236Z,15.10
2023-02-11T12:08:20.164Z,14.77
2023-02-11T12:10:50.618Z,14.40
2023-02-11T12:13:26.081Z,14.20
2023-02-11T12:16:16.683Z,14.23
2023-02-11T12:19:05.093Z,13.73
2023-02-11T12:21:32.420Z,13.57
2023-02-11T12:24:32.792Z,13.75
2023-02-11T12:27:10.586Z,13.70
2023-02-11T12:29:42.819Z,14.05
2023-02-11T12:32:10.990Z,12.77
2023-02-11T12:34:50.414Z,13.90
2023-02-11T12:37:23.831Z,13.85
2023-02-11T12:39:54.022Z,13.50
2023-02-11T12:42:52.147Z,13.73
2023-02-11T12:45:29.923Z,13.32
2023-02-11T12:48:22.983Z,13.52
2023-02-11T12:50:56.829Z,14.27
2023-02-11T12:53:48.599Z,14.50
2023-02-11T12:56:19.488Z,13.32
2023-02-11T12:58:48.451Z,13.32
2023-02-11T13:01:21.060Z,13.68
2023-02-11T13:03:51.544Z,13.50
2023-02-11T13:06:21.679Z,13.75
2023-02-11T13:08:58.531Z,13.63
2023-02-11T13:11:28.277Z,13.63
2023-02-11T13:14:02.612Z,13.52
2023-02-11T13:16:37.021Z,12.95
2023-02-11T13:19:07.296Z,12.65
2023-02-11T13:21:55.726Z,13.52
2023-02-11T13:24:29.734Z,14.35
2023-02-11T13:27:08.851Z,13.27
2023-02-11T13:29:39.295Z,13.40
2023-02-11T13:32:09.404Z,13.48
2023-02-11T13:34:42.487Z,13.40
2023-02-11T13:37:33.074Z,13.07
2023-02-11T13:40:06.197Z,12.70
2023-02-11T13:42:35.071Z,12.63
2023-02-11T13:45:02.393Z,12.95
2023-02-11T13:47:36.251Z,13.63
2023-02-11T13:50:06.307Z,12.57
2023-02-11T13:52:37.316Z,12.15
2023-02-11T13:55:15.558Z,12.30
2023-02-11T13:57:43.173Z,13.48
2023-02-11T14:00:29.426Z,13.40
2023-02-11T14:03:30.865Z,12.95
2023-02-11T14:06:28.944Z,12.70
2023-02-11T14:09:01.261Z,12.18
2023-02-11T14:11:43.826Z,12.70
2023-02-11T14:14:16.773Z,13.13
2023-02-11T14:17:02.541Z,12.77
2023-02-11T14:19:46.207Z,13.50
2023-02-11T14:22:16.582Z,13.10
2023-02-11T14:24:54.778Z,12.20
2023-02-11T14:27:28.314Z,12.18
2023-02-11T14:32:34.917Z,11.75
2023-02-11T14:35:15.338Z,12.18
2023-02-11T14:37:50.353Z,11.75
2023-02-11T14:40:28.452Z,12.00
2023-02-11T14:42:56.257Z,12.23
2023-02-11T14:45:25.565Z,12.40
2023-02-11T14:48:03.740Z,12.68
2023-02-11T14:50:49.254Z,11.70
2023-02-11T14:53:19.516Z,11.73
2023-02-11T14:55:48.121Z,11.88
2023-02-11T14:58:20.117Z,12.68
2023-02-11T15:00:53.664Z,12.05
2023-02-11T15:05:54.704Z,11.48
2023-02-11T15:08:21.985Z,11.43
2023-02-11T15:10:49.459Z,10.65
2023-02-11T15:13:18.987Z,10.95
2023-02-11T15:15:46.725Z,11.50
2023-02-11T15:18:22.937Z,12.43
2023-02-11T15:20:50.829Z,12.85
2023-02-11T15:23:26.422Z,11.38
2023-02-11T15:25:56.251Z,10.38
2023-02-11T15:28:29.126Z,10.50
2023-02-11T15:31:07.518Z,10.57
2023-02-11T15:33:34.845Z,10.45
2023-02-11T15:36:03.247Z,10.93
2023-02-11T15:38:30.584Z,10.10
2023-02-11T15:41:00.414Z,10.85
2023-02-11T15:43:47.427Z,10.48
2023-02-11T15:46:16.856Z,11.70
2023-02-11T15:48:54.120Z,11.60
2023-02-11T15:51:35.451Z,10.13
2023-02-11T15:54:04.757Z,11.27
2023-02-11T15:56:37.616Z,11.57
2023-02-11T15:59:20.694Z,12.43
2023-02-11T16:01:49.075Z,12.48
2023-02-11T16:04:17.723Z,12.75
2023-02-11T16:06:47.966Z,13.75
2023-02-11T16:09:15.296Z,12.25
2023-02-11T16:11:48.766Z,12.13
2023-02-11T16:14:25.492Z,11.93
2023-02-11T16:16:54.074Z,12.38
2023-02-11T16:19:25.239Z,11.82
2023-02-11T16:21:54.565Z,12.85
2023-02-11T16:24:26.332Z,11.73
2023-02-11T16:26:55.587Z,11.68
2023-02-11T16:29:30.058Z,11.20
2023-02-11T16:32:08.044Z,12.30
2023-02-11T16:34:35.307Z,12.70
2023-02-11T16:37:04.334Z,12.73
2023-02-11T16:39:31.554Z,12.43
2023-02-11T16:41:58.805Z,12.52
2023-02-11T16:44:26.322Z,12.90
2023-02-11T16:46:54.461Z,13.15
2023-02-11T16:49:26.397Z,13.43
2023-02-11T16:51:56.932Z,12.35
2023-02-11T16:54:24.601Z,12.57
2023-02-11T16:56:52.461Z,12.55
2023-02-11T16:59:19.804Z,12.18
2023-02-11T17:01:47.610Z,14.57
2023-02-11T17:04:18.313Z,13.57
2023-02-11T17:06:48.174Z,12.60
2023-02-11T17:09:19.927Z,10.98
2023-02-11T17:11:47.100Z,11.18
2023-02-11T17:14:14.377Z,10.57
2023-02-11T17:16:42.805Z,10.43
2023-02-11T17:19:13.836Z,10.48
2023-02-11T17:21:44.612Z,9.30
2023-02-11T17:24:12.257Z,9.95
2023-02-11T17:26:40.174Z,9.70
2023-02-11T17:29:11.280Z,10.98
2023-02-11T17:31:39.274Z,10.50
2023-02-11T17:34:06.752Z,13.70
2023-02-11T17:36:33.947Z,13.25
2023-02-11T17:39:01.691Z,12.27
2023-02-11T17:41:29.495Z,11.10
2023-02-11T17:44:00.422Z,11.25
2023-02-11T17:46:28.740Z,8.88
2023-02-11T17:48:56.668Z,8.43
2023-02-11T17:51:25.047Z,8.55
2023-02-11T17:53:52.972Z,9.60
2023-02-11T17:56:20.753Z,8.20
2023-02-11T17:58:47.895Z,9.18
2023-02-11T18:01:15.304Z,9.50
2023-02-11T18:03:42.570Z,9.73
2023-02-11T18:06:09.950Z,10.45
2023-02-11T18:08:37.321Z,11.65
2023-02-11T18:11:04.588Z,9.90
2023-02-11T18:13:32.015Z,10.07
2023-02-11T18:16:03.537Z,9.00
2023-02-11T18:18:30.888Z,9.75
2023-02-11T18:21:02.974Z,10.38
2023-02-11T18:23:30.617Z,9.52
2023-02-11T18:25:58.940Z,9.85
2023-02-11T18:28:26.279Z,9.55
2023-02-11T18:31:00.387Z,9.43
2023-02-11T18:33:28.656Z,8.52
2023-02-11T18:35:56.034Z,10.00
2023-02-11T18:38:23.484Z,10.23
2023-02-11T18:40:50.740Z,12.27
2023-02-11T18:43:18.471Z,9.13
2023-02-11T18:45:46.513Z,8.07
2023-02-11T18:48:14.169Z,8.75
2023-02-11T18:50:41.885Z,9.13
2023-02-11T18:53:09.056Z,11.52
2023-02-11T18:55:36.411Z,10.10
2023-02-11T18:58:03.966Z,8.23
2023-02-11T19:00:31.258Z,9.88
2023-02-11T19:02:59.107Z,7.80
2023-02-11T19:05:28.810Z,9.20
2023-02-11T19:07:59.655Z,10.55
2023-02-11T19:10:27.295Z,10.20
2023-02-11T19:12:56.700Z,8.75
2023-02-11T19:15:23.886Z,7.90
2023-02-11T19:17:51.284Z,7.78
2023-02-11T19:20:18.600Z,7.85
2023-02-11T19:22:46.114Z,7.78
2023-02-11T19:25:13.993Z,7.63
2023-02-11T19:27:41.956Z,6.72
2023-02-11T19:30:10.250Z,7.13
2023-02-11T19:32:37.517Z,6.95
2023-02-11T19:35:04.872Z,6.93
2023-02-11T19:37:32.020Z,7.13
2023-02-11T19:39:59.322Z,8.95
2023-02-11T19:42:27.763Z,8.73
2023-02-11T19:44:55.092Z,7.07
2023-02-11T19:47:27.685Z,7.55
2023-02-11T19:49:55.252Z,11.03
2023-02-11T19:52:22.392Z,10.43
2023-02-11T19:54:49.583Z,10.00
2023-02-11T19:57:16.871Z,10.05
2023-02-11T19:59:44.356Z,9.20
2023-02-11T20:02:14.697Z,10.07
2023-02-11T20:04:42.007Z,8.05
2023-02-11T20:07:12.206Z,8.40
2023-02-11T20:09:41.298Z,9.20
2023-02-11T20:12:08.493Z,8.30
2023-02-11T20:14:35.690Z,9.35
2023-02-11T20:17:03.057Z,9.77
2023-02-11T20:19:30.747Z,9.43
2023-02-11T20:21:58.033Z,10.10
2023-02-11T20:24:25.742Z,10.30
2023-02-11T20:26:56.123Z,11.85
2023-02-11T20:29:24.375Z,8.02
2023-02-11T20:31:51.619Z,7.47
2023-02-11T20:34:18.960Z,7.68
2023-02-11T20:36:52.857Z,7.20
2023-02-11T20:39:22.046Z,7.57
2023-02-11T20:41:49.357Z,8.23
2023-02-11T20:44:16.751Z,9.02
2023-02-11T20:46:48.458Z,13.95
2023-02-11T20:49:19.031Z,13.90
2023-02-11T20:51:46.656Z,12.55
2023-02-11T20:54:17.797Z,14.50
2023-02-11T20:56:47.840Z,12.98
2023-02-11T20:59:16.729Z,18.27
2023-02-11T21:01:45.165Z,21.42
2023-02-11T21:04:13.604Z,35.90
2023-02-11T21:06:42.685Z,23.33
2023-02-11T21:09:11.660Z,24.60
2023-02-11T21:11:38.981Z,17.58
2023-02-11T21:14:06.807Z,17.83
2023-02-11T21:16:34.154Z,16.48
2023-02-11T21:19:02.827Z,11.45
2023-02-11T21:21:30.210Z,13.25
2023-02-11T21:23:58.709Z,16.95
2023-02-11T21:26:26.149Z,14.10
2023-02-11T21:28:55.150Z,15.82
2023-02-11T21:31:24.342Z,16.23
2023-02-11T21:33:51.963Z,18.45
2023-02-11T21:36:19.562Z,9.70
2023-02-11T21:38:46.736Z,9.32
2023-02-11T21:41:14.015Z,9.10
2023-02-11T21:43:41.196Z,8.73
2023-02-11T21:46:10.152Z,10.75
2023-02-11T21:48:37.577Z,10.60
2023-02-11T21:51:05.924Z,7.90
2023-02-11T21:53:33.144Z,8.02
2023-02-11T21:56:04.431Z,7.40
2023-02-11T21:58:31.686Z,8.63
2023-02-11T22:00:59.106Z,9.95
2023-02-11T22:03:26.393Z,8.45
2023-02-11T22:05:54.036Z,8.75
2023-02-11T22:08:21.447Z,8.05
2023-02-11T22:10:51.525Z,8.93
2023-02-11T22:13:18.968Z,11.68
2023-02-11T22:15:46.168Z,12.07
2023-02-11T22:18:13.396Z,11.00
2023-02-11T22:20:40.595Z,10.77
2023-02-11T22:23:07.800Z,10.00
2023-02-11T22:25:34.958Z,8.18
2023-02-11T22:28:02.125Z,6.97
2023-02-11T22:30:29.611Z,5.90
2023-02-11T22:32:57.070Z,5.70
2023-02-11T22:35:24.209Z,5.15
2023-02-11T22:37:51.643Z,5.07
2023-02-11T22:40:19.142Z,4.82
2023-02-11T22:42:46.667Z,4.72
2023-02-11T22:45:14.409Z,4.90
2023-02-11T22:47:42.364Z,6.53
2023-02-11T22:50:09.644Z,5.82
2023-02-11T22:52:36.984Z,4.38
2023-02-11T22:55:04.248Z,4.70
2023-02-11T22:57:31.492Z,4.15
2023-02-11T22:59:58.641Z,4.80
2023-02-11T23:02:25.935Z,4.90
2023-02-11T23:04:53.278Z,6.18
2023-02-11T23:07:20.792Z,5.93
2023-02-11T23:09:48.031Z,6.20
2023-02-11T23:12:15.244Z,6.00
2023-02-11T23:14:42.976Z,7.72
2023-02-11T23:17:10.256Z,7.70
2023-02-11T23:19:37.432Z,8.73
2023-02-11T23:22:06.228Z,8.95
2023-02-11T23:24:33.490Z,8.82
2023-02-11T23:27:00.672Z,8.70
2023-02-11T23:29:28.089Z,8.60
2023-02-11T23:31:58.434Z,7.85
2023-02-11T23:34:26.325Z,7.70
2023-02-11T23:36:53.659Z,6.15
2023-02-11T23:39:20.929Z,3.80
2023-02-11T23:41:48.253Z,3.47
2023-02-11T23:44:15.470Z,3.88
2023-02-11T23:46:42.734Z,3.28
2023-02-11T23:49:10.441Z,3.95
2023-02-11T23:51:37.717Z,4.00
2023-02-11T23:54:04.983Z,4.32
2023-02-11T23:56:32.175Z,3.70
2023-02-11T23:58:59.805Z,4.05
